createdAt,value
2019-03-01T00:00:58.228Z,43.86
2019-03-01T00:03:47.592Z,43.90
2019-03-01T00:06:42.394Z,44.26
2019-03-01T00:09:40.792Z,44.20
2019-03-01T00:13:18.929Z,44.38
2019-03-01T00:16:57.753Z,44.44
2019-03-01T00:20:15.509Z,44.65
2019-03-01T00:23:30.689Z,44.91
2019-03-01T00:27:03.161Z,45.27
2019-03-01T00:30:22.908Z,45.49
2019-03-01T00:33:40.999Z,45.91
2019-03-01T00:37:07.405Z,46.62
2019-03-01T00:40:16.767Z,47.27
2019-03-01T00:43:54.748Z,47.69
2019-03-01T00:46:42.681Z,47.97
2019-03-01T00:49:32.878Z,48.10
2019-03-01T00:52:21.123Z,48.24
2019-03-01T00:55:09.413Z,48.22
2019-03-01T00:57:57.730Z,48.17
2019-03-01T01:00:48.361Z,48.19
2019-03-01T01:03:36.523Z,48.42
2019-03-01T01:06:24.486Z,48.69
2019-03-01T01:09:12.590Z,48.60
2019-03-01T01:12:00.774Z,48.50
2019-03-01T01:14:48.859Z,48.33
2019-03-01T01:17:36.778Z,48.71
2019-03-01T01:20:24.691Z,48.59
2019-03-01T01:23:12.384Z,48.38
2019-03-01T01:26:00.271Z,48.64
2019-03-01T01:28:48.063Z,48.75
2019-03-01T01:31:35.970Z,48.56
2019-03-01T01:34:23.971Z,48.21
2019-03-01T01:37:11.920Z,48.29
2019-03-01T01:39:59.900Z,47.97
2019-03-01T01:42:47.982Z,47.96
2019-03-01T01:45:35.942Z,47.89
2019-03-01T01:48:23.844Z,47.78
2019-03-01T01:51:11.508Z,47.90
2019-03-01T01:53:59.860Z,47.90
2019-03-01T01:56:47.719Z,47.80
2019-03-01T01:59:35.881Z,48.13
2019-03-01T02:02:23.705Z,48.12
2019-03-01T02:05:12.055Z,48.03
2019-03-01T02:07:59.725Z,47.88
2019-03-01T02:10:47.966Z,47.87
2019-03-01T02:13:36.229Z,47.63
2019-03-01T02:16:24.473Z,47.62
2019-03-01T02:19:12.501Z,47.23
2019-03-01T02:22:00.330Z,47.25
2019-03-01T02:24:48.244Z,47.39
2019-03-01T02:27:36.141Z,47.69
2019-03-01T02:30:25.941Z,47.15
2019-03-01T02:33:13.711Z,47.32
2019-03-01T02:36:01.553Z,47.30
2019-03-01T02:38:49.699Z,47.31
2019-03-01T02:41:37.799Z,47.43
2019-03-01T02:44:25.732Z,47.30
2019-03-01T02:47:13.882Z,47.28
2019-03-01T02:50:01.494Z,47.37
2019-03-01T02:52:49.551Z,47.63
2019-03-01T02:55:37.634Z,47.42
2019-03-01T02:58:25.799Z,46.93
2019-03-01T03:01:13.900Z,47.08
2019-03-01T03:04:02.211Z,47.33
2019-03-01T03:07:05.163Z,47.09
2019-03-01T03:09:53.475Z,47.11
2019-03-01T03:12:41.818Z,47.25
2019-03-01T03:15:38.186Z,47.03
2019-03-01T03:18:26.632Z,46.82
2019-03-01T03:21:14.303Z,46.95
2019-03-01T03:24:02.718Z,46.60
2019-03-01T03:26:50.936Z,46.66
2019-03-01T03:29:38.855Z,46.38
2019-03-01T03:32:26.910Z,46.65
2019-03-01T03:35:15.150Z,46.89
2019-03-01T03:38:03.122Z,46.77
2019-03-01T03:40:51.065Z,46.65
2019-03-01T03:43:39.310Z,46.70
2019-03-01T03:46:27.863Z,46.98
2019-03-01T03:49:15.777Z,47.31
2019-03-01T03:52:03.819Z,47.92
2019-03-01T03:54:51.568Z,48.62
2019-03-01T03:57:40.006Z,48.91
2019-03-01T04:00:27.568Z,49.36
2019-03-01T04:03:15.805Z,50.96
2019-03-01T04:06:03.728Z,51.15
2019-03-01T04:08:51.984Z,52.82
2019-03-01T04:11:39.898Z,53.31
2019-03-01T04:14:27.896Z,53.24
2019-03-01T04:17:15.668Z,52.20
2019-03-01T04:20:03.680Z,52.83
2019-03-01T04:22:51.254Z,52.32
2019-03-01T04:25:39.325Z,52.71
2019-03-01T04:28:27.244Z,52.14
2019-03-01T04:31:15.367Z,52.08
2019-03-01T04:34:03.219Z,52.07
2019-03-01T04:36:51.265Z,51.44
2019-03-01T04:39:39.548Z,51.36
2019-03-01T04:42:27.945Z,51.44
2019-03-01T04:45:15.902Z,51.50
2019-03-01T04:48:04.151Z,51.52
2019-03-01T04:50:51.978Z,51.53
2019-03-01T04:53:39.951Z,51.25
2019-03-01T04:56:28.089Z,50.52
2019-03-01T04:59:15.853Z,51.04
2019-03-01T05:02:03.728Z,50.97
2019-03-01T05:04:52.059Z,50.43
2019-03-01T05:07:40.295Z,50.87
2019-03-01T05:10:27.889Z,50.65
2019-03-01T05:13:16.027Z,50.49
2019-03-01T05:16:03.992Z,50.25
2019-03-01T05:18:51.950Z,50.32
2019-03-01T05:21:39.825Z,50.34
2019-03-01T05:24:28.042Z,50.25
2019-03-01T05:27:16.297Z,49.75
2019-03-01T05:30:04.771Z,49.38
2019-03-01T05:32:52.952Z,50.04
2019-03-01T05:35:41.095Z,49.81
2019-03-01T05:38:29.038Z,49.91
2019-03-01T05:41:17.310Z,49.62
2019-03-01T05:44:05.336Z,49.58
2019-03-01T05:46:53.279Z,50.19
2019-03-01T05:49:41.331Z,50.06
2019-03-01T05:52:29.200Z,49.99
2019-03-01T05:55:17.063Z,50.20
2019-03-01T05:58:32.973Z,50.03
2019-03-01T06:01:27.773Z,50.25
2019-03-01T06:04:34.992Z,49.86
2019-03-01T06:08:25.805Z,49.60
2019-03-01T06:11:57.249Z,49.70
2019-03-01T06:15:35.412Z,49.48
2019-03-01T06:19:06.816Z,49.83
2019-03-01T06:22:29.456Z,49.30
2019-03-01T06:25:42.933Z,49.77
2019-03-01T06:28:58.784Z,49.16
2019-03-01T06:32:36.924Z,49.47
2019-03-01T06:36:01.787Z,49.29
2019-03-01T06:39:56.500Z,49.87
2019-03-01T06:42:52.389Z,49.81
2019-03-01T06:46:18.811Z,50.22
2019-03-01T06:49:15.543Z,49.74
2019-03-01T06:52:03.654Z,49.38
2019-03-01T06:54:51.529Z,49.43
2019-03-01T06:57:38.992Z,49.53
2019-03-01T07:00:28.477Z,49.64
2019-03-01T07:03:16.592Z,49.50
2019-03-01T07:06:04.575Z,49.18
2019-03-01T07:08:52.674Z,49.56
2019-03-01T07:11:40.650Z,49.41
2019-03-01T07:14:28.981Z,49.37
2019-03-01T07:17:17.233Z,49.46
2019-03-01T07:20:05.361Z,50.39
2019-03-01T07:22:53.318Z,50.91
2019-03-01T07:25:43.468Z,51.27
2019-03-01T07:28:31.652Z,51.77
2019-03-01T07:31:19.494Z,52.53
2019-03-01T07:34:07.447Z,54.25
2019-03-01T07:36:55.572Z,54.35
2019-03-01T07:39:43.728Z,55.23
2019-03-01T07:42:31.778Z,56.07
2019-03-01T07:45:20.593Z,57.18
2019-03-01T07:48:08.619Z,58.10
2019-03-01T07:50:56.549Z,57.87
2019-03-01T07:53:44.309Z,58.84
2019-03-01T07:56:32.311Z,59.16
2019-03-01T07:59:20.466Z,60.09
2019-03-01T08:02:08.653Z,60.57
2019-03-01T08:04:56.665Z,60.94
2019-03-01T08:07:44.619Z,61.55
2019-03-01T08:10:32.572Z,61.53
2019-03-01T08:13:20.872Z,62.03
2019-03-01T08:16:09.078Z,61.98
2019-03-01T08:18:57.329Z,61.59
2019-03-01T08:21:45.908Z,61.35
2019-03-01T08:24:34.837Z,61.13
2019-03-01T08:27:22.594Z,61.40
2019-03-01T08:30:13.533Z,61.49
2019-03-01T08:33:02.717Z,61.95
2019-03-01T08:35:50.868Z,62.86
2019-03-01T08:38:38.864Z,62.31
2019-03-01T08:41:26.579Z,62.50
2019-03-01T08:44:14.375Z,61.88
2019-03-01T08:47:02.212Z,61.99
2019-03-01T08:49:50.436Z,61.59
2019-03-01T08:52:40.485Z,62.53
2019-03-01T08:55:27.944Z,62.52
2019-03-01T08:58:15.935Z,62.45
2019-03-01T09:01:08.365Z,62.27
2019-03-01T09:03:58.546Z,63.47
2019-03-01T09:06:47.732Z,63.08
2019-03-01T09:09:35.683Z,63.33
2019-03-01T09:12:23.647Z,62.57
2019-03-01T09:15:13.250Z,63.16
2019-03-01T09:18:00.934Z,62.73
2019-03-01T09:20:49.197Z,63.11
2019-03-01T09:23:36.806Z,63.22
2019-03-01T09:26:24.641Z,63.63
2019-03-01T09:29:18.308Z,62.86
2019-03-01T09:32:02.496Z,62.97
2019-03-01T09:34:53.922Z,62.84
2019-03-01T09:37:41.614Z,63.19
2019-03-01T09:40:29.754Z,62.80
2019-03-01T09:43:17.525Z,63.15
2019-03-01T09:46:05.781Z,62.39
2019-03-01T09:48:53.515Z,62.60
2019-03-01T09:51:43.715Z,62.99
2019-03-01T09:54:31.169Z,62.88
2019-03-01T09:57:20.490Z,62.45
2019-03-01T10:00:10.591Z,62.13
2019-03-01T10:02:58.850Z,61.90
2019-03-01T10:05:46.686Z,62.34
2019-03-01T10:08:34.612Z,62.03
2019-03-01T10:11:22.624Z,62.67
2019-03-01T10:14:10.748Z,61.74
2019-03-01T10:16:58.605Z,61.51
2019-03-01T10:19:46.865Z,62.22
2019-03-01T10:22:34.805Z,61.92
2019-03-01T10:25:22.802Z,61.49
2019-03-01T10:28:10.669Z,61.08
2019-03-01T10:30:58.820Z,60.91
2019-03-01T10:33:46.984Z,61.00
2019-03-01T10:36:34.759Z,60.61
2019-03-01T10:39:22.649Z,60.96
2019-03-01T10:42:10.799Z,60.41
2019-03-01T10:44:59.097Z,60.42
2019-03-01T10:47:47.151Z,59.95
2019-03-01T10:50:34.668Z,60.29
2019-03-01T10:53:22.715Z,60.14
2019-03-01T10:56:11.057Z,61.22
2019-03-01T10:58:59.108Z,60.22
2019-03-01T11:01:47.078Z,59.77
2019-03-01T11:04:34.955Z,60.46
2019-03-01T11:07:22.925Z,60.67
2019-03-01T11:10:12.781Z,60.12
2019-03-01T11:13:00.742Z,60.06
2019-03-01T11:15:48.682Z,60.29
2019-03-01T11:18:36.876Z,60.35
2019-03-01T11:21:25.247Z,60.07
2019-03-01T11:24:13.028Z,59.90
2019-03-01T11:27:01.127Z,59.91
2019-03-01T11:29:49.357Z,60.35
2019-03-01T11:32:37.221Z,60.50
2019-03-01T11:35:25.339Z,59.51
2019-03-01T11:38:13.424Z,59.28
2019-03-01T11:41:01.821Z,60.19
2019-03-01T11:43:49.996Z,59.48
2019-03-01T11:46:38.544Z,60.06
2019-03-01T11:49:26.683Z,60.63
2019-03-01T11:52:14.599Z,60.02
2019-03-01T11:55:02.537Z,60.21
2019-03-01T11:57:50.488Z,59.98
2019-03-01T12:00:38.388Z,59.76
2019-03-01T12:03:26.230Z,59.41
2019-03-01T12:06:14.085Z,58.65
2019-03-01T12:09:02.683Z,59.40
2019-03-01T12:11:50.556Z,58.82
2019-03-01T12:14:38.705Z,58.81
2019-03-01T12:17:26.825Z,58.73
2019-03-01T12:20:16.673Z,58.44
2019-03-01T12:23:04.829Z,58.20
2019-03-01T12:25:53.045Z,58.69
2019-03-01T12:28:41.195Z,58.42
2019-03-01T12:31:29.319Z,58.45
2019-03-01T12:34:17.374Z,58.36
2019-03-01T12:37:05.035Z,58.34
2019-03-01T12:39:52.952Z,58.37
2019-03-01T12:42:40.567Z,57.64
2019-03-01T12:45:28.789Z,57.50
2019-03-01T12:48:16.711Z,57.13
2019-03-01T12:51:04.630Z,57.27
2019-03-01T12:53:52.572Z,56.74
2019-03-01T12:56:40.627Z,57.33
2019-03-01T12:59:28.465Z,57.32
2019-03-01T13:02:16.449Z,57.76
2019-03-01T13:05:04.626Z,57.78
2019-03-01T13:07:54.455Z,56.80
2019-03-01T13:10:42.509Z,57.53
2019-03-01T13:13:30.254Z,57.42
2019-03-01T13:16:18.509Z,57.50
2019-03-01T13:19:06.700Z,57.71
2019-03-01T13:21:54.570Z,58.20
2019-03-01T13:24:42.771Z,57.30
2019-03-01T13:27:30.694Z,57.95
2019-03-01T13:30:20.182Z,57.15
2019-03-01T13:33:08.535Z,57.91
2019-03-01T13:35:59.917Z,57.48
2019-03-01T13:38:47.073Z,57.25
2019-03-01T13:41:37.205Z,56.88
2019-03-01T13:44:24.769Z,56.07
2019-03-01T13:47:12.840Z,56.50
2019-03-01T13:50:05.697Z,57.19
2019-03-01T13:52:50.864Z,57.26
2019-03-01T13:55:38.711Z,57.99
2019-03-01T13:58:27.661Z,57.14
2019-03-01T14:01:16.131Z,56.88
2019-03-01T14:04:04.216Z,56.28
2019-03-01T14:06:52.492Z,56.66
2019-03-01T14:09:40.460Z,56.57
2019-03-01T14:12:28.591Z,56.28
2019-03-01T14:15:17.158Z,57.07
2019-03-01T14:18:04.749Z,58.15
2019-03-01T14:20:54.345Z,59.15
2019-03-01T14:23:42.552Z,59.42
2019-03-01T14:26:30.825Z,59.04
2019-03-01T14:29:18.527Z,58.65
2019-03-01T14:32:06.545Z,59.16
2019-03-01T14:34:54.775Z,58.28
2019-03-01T14:37:42.754Z,57.95
2019-03-01T14:40:30.436Z,58.30
2019-03-01T14:43:20.176Z,58.65
2019-03-01T14:46:08.282Z,58.34
2019-03-01T14:48:56.313Z,58.36
2019-03-01T14:51:46.893Z,58.28
2019-03-01T14:54:33.509Z,57.89
2019-03-01T14:57:31.305Z,57.84
2019-03-01T15:00:35.117Z,58.36
2019-03-01T15:03:33.079Z,58.00
2019-03-01T15:06:21.100Z,57.22
2019-03-01T15:09:09.832Z,57.48
2019-03-01T15:11:57.735Z,57.51
2019-03-01T15:14:49.671Z,57.23
2019-03-01T15:17:35.139Z,57.55
2019-03-01T15:20:24.312Z,56.88
2019-03-01T15:23:12.514Z,57.27
2019-03-01T15:26:00.527Z,56.59
2019-03-01T15:28:55.776Z,57.13
2019-03-01T15:31:43.848Z,57.44
2019-03-01T15:34:31.993Z,56.97
2019-03-01T15:37:20.034Z,56.57
2019-03-01T15:40:08.340Z,56.85
2019-03-01T15:42:56.764Z,56.65
2019-03-01T15:45:44.326Z,57.03
2019-03-01T15:48:34.471Z,56.77
2019-03-01T15:51:21.713Z,56.95
2019-03-01T15:54:09.950Z,56.87
2019-03-01T15:56:57.929Z,57.56
2019-03-01T15:59:47.832Z,57.77
2019-03-01T16:02:35.859Z,56.77
2019-03-01T16:05:23.743Z,57.63
2019-03-01T16:08:11.777Z,57.40
2019-03-01T16:10:59.786Z,57.40
2019-03-01T16:13:49.309Z,56.58
2019-03-01T16:16:37.510Z,56.67
2019-03-01T16:19:25.592Z,57.45
2019-03-01T16:22:15.432Z,56.50
2019-03-01T16:25:03.845Z,56.95
2019-03-01T16:27:54.292Z,57.23
2019-03-01T16:30:42.015Z,57.14
2019-03-01T16:33:30.089Z,57.55
2019-03-01T16:36:26.523Z,57.46
2019-03-01T16:39:14.031Z,57.58
2019-03-01T16:42:02.199Z,57.88
2019-03-01T16:44:50.518Z,57.30
2019-03-01T16:47:42.123Z,57.55
2019-03-01T16:50:27.894Z,57.82
2019-03-01T16:53:15.804Z,57.20
2019-03-01T16:56:03.801Z,57.72
2019-03-01T16:58:51.816Z,57.64
2019-03-01T17:01:40.692Z,57.68
2019-03-01T17:04:29.130Z,57.50
2019-03-01T17:07:16.997Z,56.77
2019-03-01T17:10:05.150Z,57.05
2019-03-01T17:12:53.348Z,57.59
2019-03-01T17:15:41.150Z,57.37
2019-03-01T17:18:29.048Z,56.84
2019-03-01T17:21:17.227Z,57.44
2019-03-01T17:24:05.512Z,57.31
2019-03-01T17:26:53.344Z,57.34
2019-03-01T17:29:43.507Z,57.38
2019-03-01T17:32:34.245Z,57.53
2019-03-01T17:35:21.203Z,57.45
2019-03-01T17:38:09.089Z,57.69
2019-03-01T17:40:56.772Z,57.39
2019-03-01T17:43:44.890Z,57.50
2019-03-01T17:46:33.829Z,58.00
2019-03-01T17:49:21.859Z,58.05
2019-03-01T17:52:09.523Z,57.30
2019-03-01T17:55:01.294Z,57.57
2019-03-01T17:57:46.977Z,58.37
2019-03-01T18:00:36.475Z,58.16
2019-03-01T18:03:24.481Z,58.04
2019-03-01T18:06:16.420Z,57.75
2019-03-01T18:09:02.312Z,57.56
2019-03-01T18:11:50.503Z,57.30
2019-03-01T18:14:38.955Z,57.36
2019-03-01T18:17:26.947Z,57.53
2019-03-01T18:20:15.085Z,57.63
2019-03-01T18:23:03.176Z,57.15
2019-03-01T18:25:51.988Z,57.18
2019-03-01T18:28:40.270Z,56.82
2019-03-01T18:31:34.303Z,56.71
2019-03-01T18:34:17.653Z,57.18
2019-03-01T18:37:19.036Z,57.07
2019-03-01T18:39:54.818Z,57.13
2019-03-01T18:42:43.934Z,56.72
2019-03-01T18:45:31.866Z,56.88
2019-03-01T18:48:20.026Z,57.15
2019-03-01T18:51:08.141Z,57.14
2019-03-01T18:53:56.090Z,57.69
2019-03-01T18:56:44.291Z,57.81
2019-03-01T18:59:32.485Z,57.45
2019-03-01T19:02:20.670Z,57.74
2019-03-01T19:05:08.922Z,57.52
2019-03-01T19:07:56.768Z,57.20
2019-03-01T19:10:53.735Z,57.09
2019-03-01T19:13:34.714Z,57.54
2019-03-01T19:16:25.341Z,57.21
2019-03-01T19:19:13.277Z,57.39
2019-03-01T19:22:01.223Z,57.66
2019-03-01T19:24:50.173Z,57.16
2019-03-01T19:27:39.241Z,57.12
2019-03-01T19:30:27.414Z,57.54
2019-03-01T19:33:17.275Z,57.34
2019-03-01T19:36:05.206Z,56.81
2019-03-01T19:38:53.145Z,57.16
2019-03-01T19:41:40.988Z,56.78
2019-03-01T19:44:29.777Z,56.89
2019-03-01T19:47:17.525Z,57.63
2019-03-01T19:50:06.800Z,57.73
2019-03-01T19:52:54.918Z,57.25
2019-03-01T19:55:46.885Z,57.76
2019-03-01T19:58:44.218Z,57.72
2019-03-01T20:01:32.916Z,57.56
2019-03-01T20:04:21.846Z,57.31
2019-03-01T20:07:16.113Z,57.15
2019-03-01T20:10:05.391Z,57.07
2019-03-01T20:12:54.517Z,56.64
2019-03-01T20:15:47.452Z,57.15
2019-03-01T20:18:41.749Z,57.01
2019-03-01T20:21:35.326Z,57.07
2019-03-01T20:24:24.578Z,56.97
2019-03-01T20:27:13.492Z,56.87
2019-03-01T20:30:05.189Z,57.15
2019-03-01T20:32:53.288Z,57.33
2019-03-01T20:35:41.304Z,56.82
2019-03-01T20:38:29.309Z,56.54
2019-03-01T20:41:17.446Z,57.12
2019-03-01T20:44:05.510Z,56.72
2019-03-01T20:46:54.214Z,56.94
2019-03-01T20:49:42.043Z,57.25
2019-03-01T20:52:29.907Z,56.96
2019-03-01T20:55:18.363Z,57.07
2019-03-01T20:58:06.664Z,57.24
2019-03-01T21:00:54.538Z,57.39
2019-03-01T21:03:42.648Z,57.26
2019-03-01T21:06:30.873Z,57.41
2019-03-01T21:09:20.192Z,57.67
2019-03-01T21:12:08.033Z,57.99
2019-03-01T21:14:58.668Z,57.73
2019-03-01T21:17:45.340Z,57.70
2019-03-01T21:20:33.104Z,58.19
2019-03-01T21:23:21.198Z,58.42
2019-03-01T21:26:12.111Z,58.58
2019-03-01T21:28:58.863Z,58.68
2019-03-01T21:31:46.914Z,59.28
2019-03-01T21:34:38.333Z,59.23
2019-03-01T21:37:24.699Z,59.32
2019-03-01T21:40:12.753Z,60.59
2019-03-01T21:43:01.214Z,61.75
2019-03-01T21:45:49.196Z,61.18
2019-03-01T21:48:36.930Z,62.04
2019-03-01T21:51:24.707Z,61.51
2019-03-01T21:54:12.583Z,61.47
2019-03-01T21:57:02.234Z,61.40
2019-03-01T21:59:52.526Z,60.12
2019-03-01T22:02:39.911Z,60.59
2019-03-01T22:05:27.962Z,60.44
2019-03-01T22:08:16.289Z,60.54
2019-03-01T22:11:04.661Z,60.98
2019-03-01T22:13:52.444Z,60.62
2019-03-01T22:16:40.114Z,60.42
2019-03-01T22:19:30.497Z,60.63
2019-03-01T22:22:17.528Z,60.46
2019-03-01T22:25:07.963Z,60.51
2019-03-01T22:27:57.707Z,60.47
2019-03-01T22:30:45.556Z,60.48
2019-03-01T22:33:33.521Z,60.27
2019-03-01T22:36:21.504Z,60.26
2019-03-01T22:39:09.500Z,60.50
2019-03-01T22:41:57.652Z,60.41
2019-03-01T22:44:45.987Z,60.46
2019-03-01T22:47:36.075Z,60.81
2019-03-01T22:50:24.083Z,60.21
2019-03-01T22:53:12.008Z,59.73
2019-03-01T22:56:00.066Z,59.36
2019-03-01T22:58:48.104Z,59.44
2019-03-01T23:01:48.734Z,59.16
2019-03-01T23:04:36.895Z,59.21
2019-03-01T23:07:26.363Z,59.27
2019-03-01T23:10:15.070Z,59.49
2019-03-01T23:13:03.258Z,59.47
2019-03-01T23:15:51.220Z,58.93
2019-03-01T23:18:40.552Z,58.75
2019-03-01T23:21:28.642Z,58.99
2019-03-01T23:24:16.956Z,59.29
2019-03-01T23:27:04.950Z,59.09
2019-03-01T23:29:54.336Z,59.16
2019-03-01T23:32:42.896Z,59.32
2019-03-01T23:35:30.517Z,58.80
2019-03-01T23:38:18.479Z,58.92
2019-03-01T23:41:07.768Z,58.95
2019-03-01T23:43:55.922Z,59.28
2019-03-01T23:46:43.509Z,59.35
2019-03-01T23:49:31.849Z,59.22
2019-03-01T23:52:22.890Z,59.34
2019-03-01T23:55:09.710Z,59.11
2019-03-01T23:58:05.779Z,59.36
